SCLC weather

Municipal de Vitacura Airport
Santiago, Santiago Metropolitan Region, Chile

Public forecast

Using degrees Celsius for public forecast. Weather courtesy of forecast.io.

Closest aviation weather report (METAR) to Municipal de Vitacura Airport

Report is more than 6 hours old.

Closest report is Eulogio Sánchez Airport, 4.9 nm (9.0 km) SSE. Retrieved 2020/01/26 00:00 UTC (8 hours ago):

SCTB 260000Z 22005KT CAVOK 27/06 Q1017

Closest aviation forecast (TAF) to Municipal de Vitacura Airport

Closest forecast is Comodoro Arturo Merino Benítez International Airport, 10.2 nm (19.0 km) W. Retrieved 2020/01/26 06:00 UTC (2 hours ago):

TAF SCEL 260418Z 2606/2706 16004KT CAVOK TX32/2619Z TN16/2611Z TEMPO 2609/2612 VRB02KT 8000 NSC BECMG 2614/2616 19010KT BECMG 2618/2620 22015KT BECMG 2701/2703 16006KT